sensor_id;sensor_type;location;lat;lon;timestamp;pressure;altitude;pressure_sealevel;temperature;humidity
60061;BME280;45933;51.336;12.612;2023-02-13T00:00:22;102070.94;;;8.29;71.74
60061;BME280;45933;51.336;12.612;2023-02-13T00:02:47;102074.38;;;8.28;71.70
60061;BME280;45933;51.336;12.612;2023-02-13T00:05:12;102071.78;;;8.28;71.53
60061;BME280;45933;51.336;12.612;2023-02-13T00:07:38;102076.97;;;8.28;71.50
60061;BME280;45933;51.336;12.612;2023-02-13T00:10:04;102076.06;;;8.27;71.74
60061;BME280;45933;51.336;12.612;2023-02-13T00:12:30;102075.19;;;8.27;71.45
60061;BME280;45933;51.336;12.612;2023-02-13T00:14:55;102070.00;;;8.27;71.43
60061;BME280;45933;51.336;12.612;2023-02-13T00:17:20;102069.09;;;8.26;71.60
60061;BME280;45933;51.336;12.612;2023-02-13T00:19:46;102065.63;;;8.26;71.55
60061;BME280;45933;51.336;12.612;2023-02-13T00:22:14;102069.06;;;8.25;71.72
60061;BME280;45933;51.336;12.612;2023-02-13T00:24:41;102061.22;;;8.23;71.65
60061;BME280;45933;51.336;12.612;2023-02-13T00:27:12;102055.06;;;8.21;71.41
60061;BME280;45933;51.336;12.612;2023-02-13T00:29:38;102059.44;;;8.22;71.72
60061;BME280;45933;51.336;12.612;2023-02-13T00:32:03;102057.66;;;8.21;71.61
60061;BME280;45933;51.336;12.612;2023-02-13T00:34:32;102058.50;;;8.20;71.70
60061;BME280;45933;51.336;12.612;2023-02-13T00:36:58;102059.34;;;8.19;71.75
60061;BME280;45933;51.336;12.612;2023-02-13T00:39:23;102051.59;;;8.21;71.55
60061;BME280;45933;51.336;12.612;2023-02-13T00:41:52;102055.16;;;8.23;71.68
60061;BME280;45933;51.336;12.612;2023-02-13T00:44:20;102055.16;;;8.23;71.47
60061;BME280;45933;51.336;12.612;2023-02-13T00:46:45;102052.44;;;8.20;71.57
60061;BME280;45933;51.336;12.612;2023-02-13T00:49:11;102055.91;;;8.20;71.43
60061;BME280;45933;51.336;12.612;2023-02-13T00:51:36;102057.66;;;8.21;71.19
60061;BME280;45933;51.336;12.612;2023-02-13T00:54:01;102055.91;;;8.20;71.38
60061;BME280;45933;51.336;12.612;2023-02-13T00:56:27;102053.25;;;8.19;71.54
60061;BME280;45933;51.336;12.612;2023-02-13T00:58:52;102050.66;;;8.19;71.79
60061;BME280;45933;51.336;12.612;2023-02-13T01:01:18;102061.88;;;8.18;71.40
60061;BME280;45933;51.336;12.612;2023-02-13T01:03:46;102066.25;;;8.19;71.64
60061;BME280;45933;51.336;12.612;2023-02-13T01:06:11;102065.28;;;8.17;71.54
60061;BME280;45933;51.336;12.612;2023-02-13T01:08:40;102056.69;;;8.18;71.58
60061;BME280;45933;51.336;12.612;2023-02-13T01:11:06;102058.25;;;8.12;71.51
60061;BME280;45933;51.336;12.612;2023-02-13T01:13:31;102056.34;;;8.08;71.63
60061;BME280;45933;51.336;12.612;2023-02-13T01:15:59;102063.44;;;8.12;71.36
60061;BME280;45933;51.336;12.612;2023-02-13T01:18:26;102056.31;;;8.07;72.01
60061;BME280;45933;51.336;12.612;2023-02-13T01:20:56;102059.00;;;8.10;71.90
60061;BME280;45933;51.336;12.612;2023-02-13T01:23:22;102058.91;;;8.07;71.52
60061;BME280;45933;51.336;12.612;2023-02-13T01:25:47;102050.06;;;8.02;72.26
60061;BME280;45933;51.336;12.612;2023-02-13T01:28:16;102052.59;;;8.00;71.99
60061;BME280;45933;51.336;12.612;2023-02-13T01:30:41;102055.25;;;8.02;71.62
60061;BME280;45933;51.336;12.612;2023-02-13T01:33:09;102050.88;;;8.01;72.06
60061;BME280;45933;51.336;12.612;2023-02-13T01:35:38;102053.47;;;8.01;71.99
60061;BME280;45933;51.336;12.612;2023-02-13T01:38:06;102044.75;;;7.99;71.96
60061;BME280;45933;51.336;12.612;2023-02-13T01:40:31;102045.41;;;7.93;72.32
60061;BME280;45933;51.336;12.612;2023-02-13T01:42:57;102048.88;;;7.94;72.42
60061;BME280;45933;51.336;12.612;2023-02-13T01:45:29;102041.22;;;7.97;72.30
60061;BME280;45933;51.336;12.612;2023-02-13T01:47:58;102049.72;;;7.93;72.81
60061;BME280;45933;51.336;12.612;2023-02-13T01:53:07;102047.19;;;7.94;72.59
60061;BME280;45933;51.336;12.612;2023-02-13T01:55:38;102057.38;;;7.90;72.79
60061;BME280;45933;51.336;12.612;2023-02-13T01:58:10;102048.72;;;7.89;72.70
60061;BME280;45933;51.336;12.612;2023-02-13T02:00:37;102039.13;;;7.86;72.29
60061;BME280;45933;51.336;12.612;2023-02-13T02:03:13;102044.50;;;7.91;72.72
60061;BME280;45933;51.336;12.612;2023-02-13T02:05:40;102043.47;;;7.88;72.38
60061;BME280;45933;51.336;12.612;2023-02-13T02:08:08;102036.56;;;7.88;72.59
60061;BME280;45933;51.336;12.612;2023-02-13T02:10:35;102030.38;;;7.84;72.90
60061;BME280;45933;51.336;12.612;2023-02-13T02:13:05;102033.09;;;7.88;72.71
60061;BME280;45933;51.336;12.612;2023-02-13T02:15:31;102029.53;;;7.85;72.58
60061;BME280;45933;51.336;12.612;2023-02-13T02:17:57;102026.91;;;7.84;72.38
60061;BME280;45933;51.336;12.612;2023-02-13T02:23:45;102029.78;;;7.92;72.53
60061;BME280;45933;51.336;12.612;2023-02-13T02:29:39;102024.50;;;7.90;72.49
60061;BME280;45933;51.336;12.612;2023-02-13T02:32:32;102022.03;;;7.93;72.35
60061;BME280;45933;51.336;12.612;2023-02-13T02:45:48;102025.25;;;7.86;72.52
60061;BME280;45933;51.336;12.612;2023-02-13T02:51:20;102026.19;;;7.88;72.38
60061;BME280;45933;51.336;12.612;2023-02-13T02:57:05;102025.13;;;7.83;72.41
60061;BME280;45933;51.336;12.612;2023-02-13T02:59:35;102028.50;;;7.80;72.49
60061;BME280;45933;51.336;12.612;2023-02-13T03:02:20;102026.66;;;7.78;72.64
60061;BME280;45933;51.336;12.612;2023-02-13T03:05:16;102025.13;;;7.83;72.66
60061;BME280;45933;51.336;12.612;2023-02-13T03:08:03;102027.59;;;7.80;72.76
60061;BME280;45933;51.336;12.612;2023-02-13T03:10:31;102027.59;;;7.80;72.41
60061;BME280;45933;51.336;12.612;2023-02-13T03:13:34;102033.03;;;7.86;72.15
60061;BME280;45933;51.336;12.612;2023-02-13T03:16:04;102026.84;;;7.82;71.95
60061;BME280;45933;51.336;12.612;2023-02-13T03:18:51;102028.56;;;7.82;72.09
60061;BME280;45933;51.336;12.612;2023-02-13T03:24:59;102042.81;;;7.93;71.97
60061;BME280;45933;51.336;12.612;2023-02-13T03:27:57;102033.13;;;7.89;72.19
60061;BME280;45933;51.336;12.612;2023-02-13T03:30:51;102032.25;;;7.89;71.74
60061;BME280;45933;51.336;12.612;2023-02-13T03:42:02;102036.44;;;7.85;71.82
60061;BME280;45933;51.336;12.612;2023-02-13T03:44:36;102041.75;;;7.88;71.69
60061;BME280;45933;51.336;12.612;2023-02-13T03:47:04;102043.31;;;7.83;71.89
60061;BME280;45933;51.336;12.612;2023-02-13T03:49:37;102043.44;;;7.86;71.72
60061;BME280;45933;51.336;12.612;2023-02-13T03:52:50;102043.44;;;7.86;71.78
60061;BME280;45933;51.336;12.612;2023-02-13T03:55:13;102046.84;;;7.85;71.83
60061;BME280;45933;51.336;12.612;2023-02-13T03:58:06;102041.75;;;7.88;71.54
60061;BME280;45933;51.336;12.612;2023-02-13T04:00:54;102042.59;;;7.87;71.40
60061;BME280;45933;51.336;12.612;2023-02-13T04:03:26;102044.34;;;7.88;71.30
60061;BME280;45933;51.336;12.612;2023-02-13T04:06:03;102045.28;;;7.90;71.63
60061;BME280;45933;51.336;12.612;2023-02-13T04:08:31;102048.53;;;7.84;71.51
60061;BME280;45933;51.336;12.612;2023-02-13T04:13:34;102048.53;;;7.84;71.10
60061;BME280;45933;51.336;12.612;2023-02-13T04:16:32;102050.47;;;7.90;71.00
60061;BME280;45933;51.336;12.612;2023-02-13T04:18:58;102051.13;;;7.84;71.10
60061;BME280;45933;51.336;12.612;2023-02-13T04:21:24;102054.63;;;7.85;71.37
60061;BME280;45933;51.336;12.612;2023-02-13T04:23:49;102042.50;;;7.85;71.12
60061;BME280;45933;51.336;12.612;2023-02-13T04:26:22;102047.00;;;7.90;71.55
60061;BME280;45933;51.336;12.612;2023-02-13T04:28:48;102046.84;;;7.85;71.17
60061;BME280;45933;51.336;12.612;2023-02-13T04:31:13;102039.88;;;7.84;71.03
60061;BME280;45933;51.336;12.612;2023-02-13T04:33:39;102038.16;;;7.84;70.94
60061;BME280;45933;51.336;12.612;2023-02-13T04:36:05;102041.53;;;7.82;71.16
60061;BME280;45933;51.336;12.612;2023-02-13T04:38:30;102040.72;;;7.83;71.09
60061;BME280;45933;51.336;12.612;2023-02-13T04:40:56;102040.66;;;7.81;71.11
60061;BME280;45933;51.336;12.612;2023-02-13T04:43:21;102034.63;;;7.82;71.22
60061;BME280;45933;51.336;12.612;2023-02-13T04:45:48;102045.03;;;7.82;70.96
60061;BME280;45933;51.336;12.612;2023-02-13T04:48:13;102032.88;;;7.81;71.25
60061;BME280;45933;51.336;12.612;2023-02-13T04:50:39;102039.78;;;7.81;70.85
60061;BME280;45933;51.336;12.612;2023-02-13T04:53:05;102041.53;;;7.82;70.95
60061;BME280;45933;51.336;12.612;2023-02-13T04:55:30;102047.56;;;7.81;71.01
60061;BME280;45933;51.336;12.612;2023-02-13T04:57:55;102044.97;;;7.81;71.02
60061;BME280;45933;51.336;12.612;2023-02-13T05:00:23;102045.78;;;7.80;70.99
60061;BME280;45933;51.336;12.612;2023-02-13T05:02:49;102050.03;;;7.78;70.77
60061;BME280;45933;51.336;12.612;2023-02-13T05:05:15;102039.66;;;7.78;70.68
60061;BME280;45933;51.336;12.612;2023-02-13T05:07:41;102036.13;;;7.76;70.84
60061;BME280;45933;51.336;12.612;2023-02-13T05:10:07;102040.44;;;7.75;70.52
60061;BME280;45933;51.336;12.612;2023-02-13T05:12:33;102044.72;;;7.75;70.73
60061;BME280;45933;51.336;12.612;2023-02-13T05:14:58;102052.50;;;7.75;70.52
60061;BME280;45933;51.336;12.612;2023-02-13T05:17:23;102046.44;;;7.74;70.60
60061;BME280;45933;51.336;12.612;2023-02-13T05:19:49;102048.97;;;7.73;70.76
60061;BME280;45933;51.336;12.612;2023-02-13T05:22:14;102044.66;;;7.73;70.56
60061;BME280;45933;51.336;12.612;2023-02-13T05:24:58;102042.03;;;7.72;70.73
60061;BME280;45933;51.336;12.612;2023-02-13T05:27:23;102046.38;;;7.73;70.63
60061;BME280;45933;51.336;12.612;2023-02-13T05:29:49;102047.22;;;7.72;70.71
60061;BME280;45933;51.336;12.612;2023-02-13T05:32:14;102040.25;;;7.71;70.56
60061;BME280;45933;51.336;12.612;2023-02-13T05:34:39;102041.16;;;7.71;70.75
60061;BME280;45933;51.336;12.612;2023-02-13T05:37:05;102035.88;;;7.70;70.52
60061;BME280;45933;51.336;12.612;2023-02-13T05:39:30;102035.00;;;7.69;70.43
60061;BME280;45933;51.336;12.612;2023-02-13T05:41:55;102039.25;;;7.67;70.53
60061;BME280;45933;51.336;12.612;2023-02-13T05:44:20;102038.38;;;7.67;70.29
60061;BME280;45933;51.336;12.612;2023-02-13T05:46:46;102037.50;;;7.66;70.58
60061;BME280;45933;51.336;12.612;2023-02-13T05:49:13;102041.72;;;7.64;70.65
60061;BME280;45933;51.336;12.612;2023-02-13T05:51:39;102034.72;;;7.62;71.00
60061;BME280;45933;51.336;12.612;2023-02-13T05:54:04;102035.56;;;7.60;70.35
60061;BME280;45933;51.336;12.612;2023-02-13T05:56:29;102042.47;;;7.60;70.48
60061;BME280;45933;51.336;12.612;2023-02-13T05:58:55;102040.75;;;7.60;70.65
60061;BME280;45933;51.336;12.612;2023-02-13T06:01:21;102042.38;;;7.58;70.49
60061;BME280;45933;51.336;12.612;2023-02-13T06:03:48;102039.75;;;7.57;70.69
60061;BME280;45933;51.336;12.612;2023-02-13T06:06:14;102040.63;;;7.57;70.32
60061;BME280;45933;51.336;12.612;2023-02-13T06:08:39;102042.28;;;7.55;70.55
60061;BME280;45933;51.336;12.612;2023-02-13T06:11:05;102040.56;;;7.56;70.46
60061;BME280;45933;51.336;12.612;2023-02-13T06:13:30;102046.59;;;7.55;70.23
60061;BME280;45933;51.336;12.612;2023-02-13T06:15:56;102039.59;;;7.54;70.38
60061;BME280;45933;51.336;12.612;2023-02-13T06:18:21;102041.31;;;7.53;70.12
60061;BME280;45933;51.336;12.612;2023-02-13T06:20:47;102043.81;;;7.50;70.48
60061;BME280;45933;51.336;12.612;2023-02-13T06:23:12;102042.84;;;7.48;70.44
60061;BME280;45933;51.336;12.612;2023-02-13T06:25:38;102041.78;;;7.43;70.46
60061;BME280;45933;51.336;12.612;2023-02-13T06:28:04;102048.84;;;7.46;70.48
60061;BME280;45933;51.336;12.612;2023-02-13T06:30:30;102048.66;;;7.41;70.27
60061;BME280;45933;51.336;12.612;2023-02-13T06:32:56;102055.59;;;7.42;70.33
60061;BME280;45933;51.336;12.612;2023-02-13T06:35:33;102048.84;;;7.46;70.25
60061;BME280;45933;51.336;12.612;2023-02-13T06:37:58;102047.75;;;7.41;70.24
60061;BME280;45933;51.336;12.612;2023-02-13T06:40:24;102051.19;;;7.40;70.67
60061;BME280;45933;51.336;12.612;2023-02-13T06:42:49;102062.41;;;7.39;70.45
60061;BME280;45933;51.336;12.612;2023-02-13T06:45:14;102068.53;;;7.41;70.30
60061;BME280;45933;51.336;12.612;2023-02-13T06:47:44;102066.06;;;7.44;70.36
60061;BME280;45933;51.336;12.612;2023-02-13T06:50:11;102069.41;;;7.41;70.24
60061;BME280;45933;51.336;12.612;2023-02-13T06:52:36;102062.50;;;7.42;70.22
60061;BME280;45933;51.336;12.612;2023-02-13T06:55:02;102053.88;;;7.43;70.55
60061;BME280;45933;51.336;12.612;2023-02-13T06:57:28;102061.66;;;7.43;70.20
60061;BME280;45933;51.336;12.612;2023-02-13T06:59:57;102059.06;;;7.43;70.17
60061;BME280;45933;51.336;12.612;2023-02-13T07:02:22;102054.84;;;7.45;70.93
60061;BME280;45933;51.336;12.612;2023-02-13T07:04:48;102061.81;;;7.46;70.51
60061;BME280;45933;51.336;12.612;2023-02-13T07:07:13;102064.44;;;7.47;70.34
60061;BME280;45933;51.336;12.612;2023-02-13T07:09:38;102067.13;;;7.49;70.39
60061;BME280;45933;51.336;12.612;2023-02-13T07:12:05;102072.38;;;7.50;70.39
60061;BME280;45933;51.336;12.612;2023-02-13T07:14:30;102085.38;;;7.52;70.26
60061;BME280;45933;51.336;12.612;2023-02-13T07:16:56;102084.63;;;7.54;70.64
60061;BME280;45933;51.336;12.612;2023-02-13T07:19:22;102086.44;;;7.57;70.77
60061;BME280;45933;51.336;12.612;2023-02-13T07:21:47;102082.19;;;7.59;70.35
60061;BME280;45933;51.336;12.612;2023-02-13T07:24:12;102084.03;;;7.62;70.24
60061;BME280;45933;51.336;12.612;2023-02-13T07:26:38;102092.84;;;7.65;70.27
60061;BME280;45933;51.336;12.612;2023-02-13T07:29:03;102082.50;;;7.67;70.00
60061;BME280;45933;51.336;12.612;2023-02-13T07:31:32;102085.19;;;7.70;70.19
60061;BME280;45933;51.336;12.612;2023-02-13T07:33:57;102085.19;;;7.70;69.60
60061;BME280;45933;51.336;12.612;2023-02-13T07:36:23;102092.22;;;7.72;69.56
60061;BME280;45933;51.336;12.612;2023-02-13T07:38:48;102091.41;;;7.73;69.44
60061;BME280;45933;51.336;12.612;2023-02-13T07:41:13;102099.22;;;7.75;69.80
60061;BME280;45933;51.336;12.612;2023-02-13T07:43:39;102090.66;;;7.76;69.50
60061;BME280;45933;51.336;12.612;2023-02-13T07:46:04;102088.94;;;7.76;69.10
60061;BME280;45933;51.336;12.612;2023-02-13T07:48:29;102095.88;;;7.77;69.40
60061;BME280;45933;51.336;12.612;2023-02-13T07:50:59;102085.56;;;7.79;69.17
60061;BME280;45933;51.336;12.612;2023-02-13T07:53:25;102097.66;;;7.78;68.90
60061;BME280;45933;51.336;12.612;2023-02-13T07:55:50;102099.50;;;7.81;69.22
60061;BME280;45933;51.336;12.612;2023-02-13T07:58:16;102098.72;;;7.83;69.02
60061;BME280;45933;51.336;12.612;2023-02-13T08:00:41;102100.44;;;7.83;68.97
60061;BME280;45933;51.336;12.612;2023-02-13T08:03:06;102096.25;;;7.86;68.91
60061;BME280;45933;51.336;12.612;2023-02-13T08:05:32;102102.31;;;7.87;68.91
60061;BME280;45933;51.336;12.612;2023-02-13T08:07:58;102105.81;;;7.88;68.64
60061;BME280;45933;51.336;12.612;2023-02-13T08:10:23;102102.38;;;7.89;68.43
60061;BME280;45933;51.336;12.612;2023-02-13T08:13:07;102104.25;;;7.93;68.57
60061;BME280;45933;51.336;12.612;2023-02-13T08:15:34;102103.44;;;7.94;68.26
60061;BME280;45933;51.336;12.612;2023-02-13T08:17:59;102109.53;;;7.96;67.87
60061;BME280;45933;51.336;12.612;2023-02-13T08:20:24;102106.94;;;7.96;67.76
60061;BME280;45933;51.336;12.612;2023-02-13T08:22:50;102106.25;;;8.00;67.93
60061;BME280;45933;51.336;12.612;2023-02-13T08:25:15;102105.53;;;8.04;67.99
60061;BME280;45933;51.336;12.612;2023-02-13T08:27:40;102097.78;;;8.05;67.54
60061;BME280;45933;51.336;12.612;2023-02-13T08:30:07;102099.56;;;8.06;67.67
60061;BME280;45933;51.336;12.612;2023-02-13T08:32:33;102096.25;;;8.10;67.69
60061;BME280;45933;51.336;12.612;2023-02-13T08:34:58;102102.50;;;8.16;67.69
60061;BME280;45933;51.336;12.612;2023-02-13T08:37:24;102088.75;;;8.18;67.51
60061;BME280;45933;51.336;12.612;2023-02-13T08:39:49;102094.88;;;8.20;67.52
60061;BME280;45933;51.336;12.612;2023-02-13T08:42:14;102101.00;;;8.22;67.24
60061;BME280;45933;51.336;12.612;2023-02-13T08:44:40;102094.03;;;8.21;67.00
60061;BME280;45933;51.336;12.612;2023-02-13T08:47:07;102102.66;;;8.20;66.95
60061;BME280;45933;51.336;12.612;2023-02-13T08:49:32;102095.88;;;8.24;67.09
60061;BME280;45933;51.336;12.612;2023-02-13T08:51:59;102104.59;;;8.26;66.67
60061;BME280;45933;51.336;12.612;2023-02-13T08:54:25;102103.56;;;8.21;66.40
60061;BME280;45933;51.336;12.612;2023-02-13T08:56:52;102103.75;;;8.27;66.72
60061;BME280;45933;51.336;12.612;2023-02-13T08:59:17;102099.41;;;8.26;66.14
60061;BME280;45933;51.336;12.612;2023-02-13T09:01:42;102105.47;;;8.26;66.29
60061;BME280;45933;51.336;12.612;2023-02-13T09:04:08;102102.88;;;8.26;66.49
60061;BME280;45933;51.336;12.612;2023-02-13T09:06:33;102109.84;;;8.27;66.53
60061;BME280;45933;51.336;12.612;2023-02-13T09:08:58;102106.50;;;8.30;66.42
60061;BME280;45933;51.336;12.612;2023-02-13T09:11:23;102110.81;;;8.29;66.63
60061;BME280;45933;51.336;12.612;2023-02-13T09:13:52;102113.41;;;8.29;66.58
60061;BME280;45933;51.336;12.612;2023-02-13T09:16:17;102117.59;;;8.26;66.03
60061;BME280;45933;51.336;12.612;2023-02-13T09:18:45;102119.34;;;8.27;65.73
60061;BME280;45933;51.336;12.612;2023-02-13T09:21:11;102121.16;;;8.28;65.84
60061;BME280;45933;51.336;12.612;2023-02-13T09:23:38;102130.72;;;8.29;66.38
60061;BME280;45933;51.336;12.612;2023-02-13T09:26:06;102126.38;;;8.29;66.57
60061;BME280;45933;51.336;12.612;2023-02-13T09:28:33;102131.69;;;8.32;66.20
60061;BME280;45933;51.336;12.612;2023-02-13T09:31:04;102120.53;;;8.35;66.41
60061;BME280;45933;51.336;12.612;2023-02-13T09:33:29;102117.13;;;8.36;66.00
60061;BME280;45933;51.336;12.612;2023-02-13T09:35:54;102119.72;;;8.36;65.97
60061;BME280;45933;51.336;12.612;2023-02-13T09:38:19;102117.88;;;8.33;65.28
60061;BME280;45933;51.336;12.612;2023-02-13T09:41:19;102123.00;;;8.54;66.19
60061;BME280;45933;51.336;12.612;2023-02-13T09:43:50;102122.84;;;8.50;66.07
60061;BME280;45933;51.336;12.612;2023-02-13T09:46:30;102128.13;;;8.53;66.08
60061;BME280;45933;51.336;12.612;2023-02-13T09:49:00;102128.13;;;8.53;65.42
60061;BME280;45933;51.336;12.612;2023-02-13T09:51:28;102132.28;;;8.48;65.11
60061;BME280;45933;51.336;12.612;2023-02-13T09:54:03;102134.16;;;8.52;65.27
60061;BME280;45933;51.336;12.612;2023-02-13T09:56:53;102131.97;;;8.64;65.65
60061;BME280;45933;51.336;12.612;2023-02-13T09:59:57;102127.63;;;8.63;65.61
60061;BME280;45933;51.336;12.612;2023-02-13T10:02:46;102135.53;;;8.66;65.36
60061;BME280;45933;51.336;12.612;2023-02-13T10:05:23;102133.78;;;8.65;65.61
60061;BME280;45933;51.336;12.612;2023-02-13T10:08:09;102135.53;;;8.66;65.12
60061;BME280;45933;51.336;12.612;2023-02-13T10:16:20;102127.56;;;8.61;65.17
60061;BME280;45933;51.336;12.612;2023-02-13T10:18:57;102124.03;;;8.59;64.71
60061;BME280;45933;51.336;12.612;2023-02-13T10:21:37;102120.59;;;8.60;65.00
60061;BME280;45933;51.336;12.612;2023-02-13T10:24:13;102112.13;;;8.66;64.92
60061;BME280;45933;51.336;12.612;2023-02-13T10:26:42;102111.09;;;8.61;65.01
60061;BME280;45933;51.336;12.612;2023-02-13T10:29:14;102117.06;;;8.58;65.25
60061;BME280;45933;51.336;12.612;2023-02-13T10:32:04;102120.84;;;8.68;64.99
60061;BME280;45933;51.336;12.612;2023-02-13T10:34:37;102111.28;;;8.67;64.50
60061;BME280;45933;51.336;12.612;2023-02-13T10:37:12;102108.91;;;8.73;65.39
60061;BME280;45933;51.336;12.612;2023-02-13T10:39:40;102099.41;;;8.75;65.28
60061;BME280;45933;51.336;12.612;2023-02-13T10:44:54;102107.81;;;8.92;64.10
60061;BME280;45933;51.336;12.612;2023-02-13T10:47:52;102097.69;;;9.01;64.35
60061;BME280;45933;51.336;12.612;2023-02-13T10:50:29;102091.53;;;8.98;64.10
60061;BME280;45933;51.336;12.612;2023-02-13T10:55:50;102089.88;;;9.01;63.19
60061;BME280;45933;51.336;12.612;2023-02-13T11:03:30;102085.00;;;9.10;63.82
60061;BME280;45933;51.336;12.612;2023-02-13T11:05:57;102081.56;;;9.11;64.01
60061;BME280;45933;51.336;12.612;2023-02-13T11:08:34;102084.00;;;9.07;63.18
60061;BME280;45933;51.336;12.612;2023-02-13T11:11:03;102078.75;;;9.05;63.14
60061;BME280;45933;51.336;12.612;2023-02-13T11:13:29;102081.34;;;9.05;63.16
60061;BME280;45933;51.336;12.612;2023-02-13T11:16:03;102080.47;;;9.05;63.34
60061;BME280;45933;51.336;12.612;2023-02-13T11:18:35;102062.97;;;8.99;62.70
60061;BME280;45933;51.336;12.612;2023-02-13T11:21:06;102068.16;;;8.99;63.15
60061;BME280;45933;51.336;12.612;2023-02-13T11:23:39;102062.06;;;8.99;63.58
60061;BME280;45933;51.336;12.612;2023-02-13T11:26:09;102060.94;;;8.90;63.09
60061;BME280;45933;51.336;12.612;2023-02-13T11:28:43;102066.97;;;8.89;63.26
60061;BME280;45933;51.336;12.612;2023-02-13T11:31:12;102072.13;;;8.88;63.21
60061;BME280;45933;51.336;12.612;2023-02-13T11:33:39;102065.88;;;8.83;63.44
60061;BME280;45933;51.336;12.612;2023-02-13T11:36:13;102061.47;;;8.80;63.24
60061;BME280;45933;51.336;12.612;2023-02-13T11:38:38;102070.78;;;8.74;63.56
60061;BME280;45933;51.336;12.612;2023-02-13T11:41:07;102073.38;;;8.74;63.33
60061;BME280;45933;51.336;12.612;2023-02-13T11:43:43;102070.00;;;8.76;63.95
60061;BME280;45933;51.336;12.612;2023-02-13T11:46:18;102070.75;;;8.72;63.82
60061;BME280;45933;51.336;12.612;2023-02-13T11:49:01;102064.66;;;8.72;63.73
60061;BME280;45933;51.336;12.612;2023-02-13T11:51:47;102066.22;;;8.67;63.81
60061;BME280;45933;51.336;12.612;2023-02-13T11:54:38;102054.94;;;8.66;63.85
60061;BME280;45933;51.336;12.612;2023-02-13T11:57:27;102054.97;;;8.68;63.73
60061;BME280;45933;51.336;12.612;2023-02-13T11:59:54;102049.78;;;8.68;64.16
60061;BME280;45933;51.336;12.612;2023-02-13T12:02:23;102055.19;;;8.74;64.16
60061;BME280;45933;51.336;12.612;2023-02-13T12:04:54;102055.22;;;8.75;63.83
60061;BME280;45933;51.336;12.612;2023-02-13T12:07:38;102064.91;;;8.79;64.03
60061;BME280;45933;51.336;12.612;2023-02-13T12:12:56;102066.13;;;8.90;63.17
60061;BME280;45933;51.336;12.612;2023-02-13T12:15:25;102071.50;;;8.95;63.16
60061;BME280;45933;51.336;12.612;2023-02-13T12:20:21;102054.22;;;8.97;62.77
60061;BME280;45933;51.336;12.612;2023-02-13T12:23:03;102041.38;;;9.02;62.80
60061;BME280;45933;51.336;12.612;2023-02-13T12:25:39;102043.41;;;9.12;62.46
60061;BME280;45933;51.336;12.612;2023-02-13T12:28:12;102039.72;;;9.05;61.82
60061;BME280;45933;51.336;12.612;2023-02-13T12:39:34;102041.41;;;9.03;61.93
60061;BME280;45933;51.336;12.612;2023-02-13T12:42:34;102030.59;;;8.91;60.84
60061;BME280;45933;51.336;12.612;2023-02-13T12:45:32;102023.06;;;8.99;61.20
60061;BME280;45933;51.336;12.612;2023-02-13T12:54:26;102017.81;;;8.97;62.31
60061;BME280;45933;51.336;12.612;2023-02-13T12:57:13;102015.09;;;8.94;62.20
60061;BME280;45933;51.336;12.612;2023-02-13T12:59:58;102010.78;;;8.95;62.33
60061;BME280;45933;51.336;12.612;2023-02-13T13:11:43;102014.44;;;9.01;62.15
60061;BME280;45933;51.336;12.612;2023-02-13T13:19:44;102013.53;;;8.99;61.77
60061;BME280;45933;51.336;12.612;2023-02-13T13:22:22;102010.00;;;8.97;61.49
60061;BME280;45933;51.336;12.612;2023-02-13T13:25:10;102006.38;;;8.92;61.33
60061;BME280;45933;51.336;12.612;2023-02-13T13:27:43;102010.81;;;8.96;61.59
60061;BME280;45933;51.336;12.612;2023-02-13T13:30:47;102004.25;;;9.07;61.96
60061;BME280;45933;51.336;12.612;2023-02-13T13:33:21;102003.13;;;8.99;61.80
60061;BME280;45933;51.336;12.612;2023-02-13T13:36:15;101995.44;;;9.02;62.35
60061;BME280;45933;51.336;12.612;2023-02-13T13:38:56;102007.50;;;9.00;62.12
60061;BME280;45933;51.336;12.612;2023-02-13T13:47:00;102010.81;;;8.96;61.62
60061;BME280;45933;51.336;12.612;2023-02-13T13:50:03;101997.97;;;9.01;61.84
60061;BME280;45933;51.336;12.612;2023-02-13T13:52:35;102005.69;;;8.98;61.45
60061;BME280;45933;51.336;12.612;2023-02-13T13:55:04;102009.91;;;8.94;61.52
60061;BME280;45933;51.336;12.612;2023-02-13T14:02:39;102013.22;;;8.90;61.71
60061;BME280;45933;51.336;12.612;2023-02-13T14:05:19;102003.81;;;8.94;61.79
60061;BME280;45933;51.336;12.612;2023-02-13T14:07:48;102012.19;;;8.85;61.92
60061;BME280;45933;51.336;12.612;2023-02-13T14:13:07;101992.97;;;8.80;61.63
60061;BME280;45933;51.336;12.612;2023-02-13T14:18:19;101996.72;;;8.88;62.13
60061;BME280;45933;51.336;12.612;2023-02-13T14:23:44;102007.84;;;8.84;61.77
60061;BME280;45933;51.336;12.612;2023-02-13T14:29:12;102008.00;;;8.88;61.79
60061;BME280;45933;51.336;12.612;2023-02-13T14:31:42;102007.00;;;8.85;61.80
60061;BME280;45933;51.336;12.612;2023-02-13T14:34:23;102001.03;;;8.87;62.13
60061;BME280;45933;51.336;12.612;2023-02-13T14:42:35;101999.03;;;8.80;61.91
60061;BME280;45933;51.336;12.612;2023-02-13T14:45:03;101994.69;;;8.79;62.17
60061;BME280;45933;51.336;12.612;2023-02-13T14:47:38;101999.16;;;8.83;61.97
60061;BME280;45933;51.336;12.612;2023-02-13T14:50:06;101998.16;;;8.80;62.12
60061;BME280;45933;51.336;12.612;2023-02-13T14:52:33;101996.44;;;8.80;62.12
60061;BME280;45933;51.336;12.612;2023-02-13T14:55:04;101993.06;;;8.83;62.27
60061;BME280;45933;51.336;12.612;2023-02-13T14:57:36;101993.84;;;8.80;62.36
60061;BME280;45933;51.336;12.612;2023-02-13T15:00:23;101995.69;;;8.83;62.48
60061;BME280;45933;51.336;12.612;2023-02-13T15:02:54;101985.28;;;8.83;62.41
60061;BME280;45933;51.336;12.612;2023-02-13T15:05:20;101991.25;;;8.80;62.55
60061;BME280;45933;51.336;12.612;2023-02-13T15:08:07;101989.41;;;8.76;62.39